sensor_id;sensor_type;location;lat;lon;timestamp;P1;durP1;ratioP1;P2;durP2;ratioP2
15312;SDS011;7757;52.626;4.746;2023-04-26T00:02:27;7.10;;;1.80;;
15312;SDS011;7757;52.626;4.746;2023-04-26T00:05:14;7.20;;;1.85;;
15312;SDS011;7757;52.626;4.746;2023-04-26T00:08:01;7.15;;;1.58;;
15312;SDS011;7757;52.626;4.746;2023-04-26T00:10:47;7.75;;;1.75;;
15312;SDS011;7757;52.626;4.746;2023-04-26T00:13:32;7.07;;;1.58;;
15312;SDS011;7757;52.626;4.746;2023-04-26T00:16:17;7.90;;;1.73;;
15312;SDS011;7757;52.626;4.746;2023-04-26T00:19:03;5.93;;;1.63;;
15312;SDS011;7757;52.626;4.746;2023-04-26T00:21:50;6.55;;;1.70;;
15312;SDS011;7757;52.626;4.746;2023-04-26T00:24:35;5.03;;;1.52;;
15312;SDS011;7757;52.626;4.746;2023-04-26T00:27:21;8.30;;;1.80;;
15312;SDS011;7757;52.626;4.746;2023-04-26T00:30:07;7.60;;;1.58;;
15312;SDS011;7757;52.626;4.746;2023-04-26T00:32:55;5.45;;;1.73;;
15312;SDS011;7757;52.626;4.746;2023-04-26T00:35:40;6.40;;;1.58;;
15312;SDS011;7757;52.626;4.746;2023-04-26T00:38:27;5.32;;;1.60;;
15312;SDS011;7757;52.626;4.746;2023-04-26T00:41:12;8.70;;;1.75;;
15312;SDS011;7757;52.626;4.746;2023-04-26T00:43:59;5.25;;;1.40;;
15312;SDS011;7757;52.626;4.746;2023-04-26T00:46:44;5.88;;;1.70;;
15312;SDS011;7757;52.626;4.746;2023-04-26T00:49:30;6.38;;;1.52;;
15312;SDS011;7757;52.626;4.746;2023-04-26T00:52:15;4.57;;;1.40;;
15312;SDS011;7757;52.626;4.746;2023-04-26T00:55:02;6.75;;;1.50;;
15312;SDS011;7757;52.626;4.746;2023-04-26T00:57:47;9.40;;;1.50;;
15312;SDS011;7757;52.626;4.746;2023-04-26T01:00:33;7.63;;;1.50;;
15312;SDS011;7757;52.626;4.746;2023-04-26T01:03:18;8.77;;;1.52;;
15312;SDS011;7757;52.626;4.746;2023-04-26T01:06:04;5.90;;;1.50;;
15312;SDS011;7757;52.626;4.746;2023-04-26T01:08:49;6.45;;;1.48;;
15312;SDS011;7757;52.626;4.746;2023-04-26T01:11:39;4.70;;;1.38;;
15312;SDS011;7757;52.626;4.746;2023-04-26T01:14:26;5.78;;;1.50;;
15312;SDS011;7757;52.626;4.746;2023-04-26T01:17:12;4.18;;;1.38;;
15312;SDS011;7757;52.626;4.746;2023-04-26T01:19:57;6.25;;;1.50;;
15312;SDS011;7757;52.626;4.746;2023-04-26T01:22:44;5.65;;;1.40;;
15312;SDS011;7757;52.626;4.746;2023-04-26T01:25:30;5.85;;;1.40;;
15312;SDS011;7757;52.626;4.746;2023-04-26T01:28:15;4.70;;;1.20;;
15312;SDS011;7757;52.626;4.746;2023-04-26T01:31:01;7.13;;;1.52;;
15312;SDS011;7757;52.626;4.746;2023-04-26T01:33:46;7.60;;;1.55;;
15312;SDS011;7757;52.626;4.746;2023-04-26T01:36:32;6.22;;;1.48;;
15312;SDS011;7757;52.626;4.746;2023-04-26T01:39:19;6.07;;;1.50;;
15312;SDS011;7757;52.626;4.746;2023-04-26T01:42:04;7.43;;;1.60;;
15312;SDS011;7757;52.626;4.746;2023-04-26T01:44:50;5.32;;;1.33;;
15312;SDS011;7757;52.626;4.746;2023-04-26T01:47:35;6.15;;;1.40;;
15312;SDS011;7757;52.626;4.746;2023-04-26T01:50:21;7.22;;;1.52;;
15312;SDS011;7757;52.626;4.746;2023-04-26T01:53:06;6.10;;;1.60;;
15312;SDS011;7757;52.626;4.746;2023-04-26T01:55:53;6.80;;;1.50;;
15312;SDS011;7757;52.626;4.746;2023-04-26T01:58:39;5.55;;;1.42;;
15312;SDS011;7757;52.626;4.746;2023-04-26T02:01:24;5.65;;;1.40;;
15312;SDS011;7757;52.626;4.746;2023-04-26T02:04:10;7.15;;;1.83;;
15312;SDS011;7757;52.626;4.746;2023-04-26T02:06:55;5.63;;;1.35;;
15312;SDS011;7757;52.626;4.746;2023-04-26T02:09:41;6.65;;;1.52;;
15312;SDS011;7757;52.626;4.746;2023-04-26T02:12:27;5.13;;;1.38;;
15312;SDS011;7757;52.626;4.746;2023-04-26T02:15:13;5.43;;;1.60;;
15312;SDS011;7757;52.626;4.746;2023-04-26T02:17:58;6.05;;;1.30;;
15312;SDS011;7757;52.626;4.746;2023-04-26T02:20:44;5.15;;;1.30;;
15312;SDS011;7757;52.626;4.746;2023-04-26T02:23:29;5.32;;;1.38;;
15312;SDS011;7757;52.626;4.746;2023-04-26T02:26:14;5.50;;;1.42;;
15312;SDS011;7757;52.626;4.746;2023-04-26T02:29:01;6.32;;;1.40;;
15312;SDS011;7757;52.626;4.746;2023-04-26T02:31:46;7.93;;;1.50;;
15312;SDS011;7757;52.626;4.746;2023-04-26T02:34:32;5.55;;;1.50;;
15312;SDS011;7757;52.626;4.746;2023-04-26T02:37:17;5.18;;;1.30;;
15312;SDS011;7757;52.626;4.746;2023-04-26T02:40:05;6.47;;;1.40;;
15312;SDS011;7757;52.626;4.746;2023-04-26T02:42:53;5.22;;;1.10;;
15312;SDS011;7757;52.626;4.746;2023-04-26T02:45:43;4.13;;;1.20;;
15312;SDS011;7757;52.626;4.746;2023-04-26T02:48:28;5.80;;;2.35;;
15312;SDS011;7757;52.626;4.746;2023-04-26T02:51:14;7.22;;;1.60;;
15312;SDS011;7757;52.626;4.746;2023-04-26T02:54:00;5.40;;;1.40;;
15312;SDS011;7757;52.626;4.746;2023-04-26T02:56:45;5.78;;;1.30;;
15312;SDS011;7757;52.626;4.746;2023-04-26T02:59:31;4.63;;;1.40;;
15312;SDS011;7757;52.626;4.746;2023-04-26T03:02:18;7.38;;;1.33;;
15312;SDS011;7757;52.626;4.746;2023-04-26T03:05:04;5.10;;;1.40;;
15312;SDS011;7757;52.626;4.746;2023-04-26T03:07:49;6.63;;;1.70;;
15312;SDS011;7757;52.626;4.746;2023-04-26T03:10:34;4.72;;;1.33;;
15312;SDS011;7757;52.626;4.746;2023-04-26T03:13:21;6.43;;;1.50;;
15312;SDS011;7757;52.626;4.746;2023-04-26T03:16:07;5.88;;;1.35;;
15312;SDS011;7757;52.626;4.746;2023-04-26T03:18:53;5.68;;;1.40;;
15312;SDS011;7757;52.626;4.746;2023-04-26T03:21:39;4.85;;;1.42;;
15312;SDS011;7757;52.626;4.746;2023-04-26T03:24:25;4.80;;;1.30;;
15312;SDS011;7757;52.626;4.746;2023-04-26T03:27:10;3.67;;;1.20;;
15312;SDS011;7757;52.626;4.746;2023-04-26T03:29:55;7.47;;;1.75;;
15312;SDS011;7757;52.626;4.746;2023-04-26T03:32:41;6.18;;;1.30;;
15312;SDS011;7757;52.626;4.746;2023-04-26T03:35:28;4.95;;;1.75;;
15312;SDS011;7757;52.626;4.746;2023-04-26T03:38:13;3.30;;;1.17;;
15312;SDS011;7757;52.626;4.746;2023-04-26T03:40:58;6.15;;;1.50;;
15312;SDS011;7757;52.626;4.746;2023-04-26T03:43:44;7.00;;;1.83;;
15312;SDS011;7757;52.626;4.746;2023-04-26T03:46:29;9.20;;;1.50;;
15312;SDS011;7757;52.626;4.746;2023-04-26T03:49:14;6.85;;;1.40;;
15312;SDS011;7757;52.626;4.746;2023-04-26T03:52:01;5.57;;;1.20;;
15312;SDS011;7757;52.626;4.746;2023-04-26T03:54:46;5.38;;;1.20;;
15312;SDS011;7757;52.626;4.746;2023-04-26T03:57:32;6.45;;;1.48;;
15312;SDS011;7757;52.626;4.746;2023-04-26T04:00:17;4.75;;;1.20;;
15312;SDS011;7757;52.626;4.746;2023-04-26T04:03:03;6.68;;;1.60;;
15312;SDS011;7757;52.626;4.746;2023-04-26T04:05:48;5.47;;;1.55;;
15312;SDS011;7757;52.626;4.746;2023-04-26T04:08:35;4.95;;;1.30;;
15312;SDS011;7757;52.626;4.746;2023-04-26T04:11:20;3.85;;;1.13;;
15312;SDS011;7757;52.626;4.746;2023-04-26T04:14:06;6.03;;;1.40;;
15312;SDS011;7757;52.626;4.746;2023-04-26T04:16:51;6.82;;;1.50;;
15312;SDS011;7757;52.626;4.746;2023-04-26T04:19:37;3.67;;;1.20;;
15312;SDS011;7757;52.626;4.746;2023-04-26T04:22:22;7.28;;;1.40;;
15312;SDS011;7757;52.626;4.746;2023-04-26T04:25:09;3.28;;;1.30;;
15312;SDS011;7757;52.626;4.746;2023-04-26T04:27:54;5.43;;;1.27;;
15312;SDS011;7757;52.626;4.746;2023-04-26T04:30:40;2.83;;;1.10;;
15312;SDS011;7757;52.626;4.746;2023-04-26T04:33:29;6.05;;;1.30;;
15312;SDS011;7757;52.626;4.746;2023-04-26T04:36:14;4.07;;;1.38;;
15312;SDS011;7757;52.626;4.746;2023-04-26T04:39:00;5.22;;;1.63;;
15312;SDS011;7757;52.626;4.746;2023-04-26T04:41:48;4.50;;;1.20;;
15312;SDS011;7757;52.626;4.746;2023-04-26T04:44:34;4.07;;;1.30;;
15312;SDS011;7757;52.626;4.746;2023-04-26T04:47:19;6.13;;;1.33;;
15312;SDS011;7757;52.626;4.746;2023-04-26T04:50:05;5.57;;;1.48;;
15312;SDS011;7757;52.626;4.746;2023-04-26T04:52:52;3.60;;;1.00;;
15312;SDS011;7757;52.626;4.746;2023-04-26T04:55:37;8.13;;;1.50;;
15312;SDS011;7757;52.626;4.746;2023-04-26T04:58:24;5.82;;;1.52;;
15312;SDS011;7757;52.626;4.746;2023-04-26T05:01:10;5.55;;;1.30;;
15312;SDS011;7757;52.626;4.746;2023-04-26T05:03:56;4.80;;;1.20;;
15312;SDS011;7757;52.626;4.746;2023-04-26T05:06:41;7.60;;;1.50;;
15312;SDS011;7757;52.626;4.746;2023-04-26T05:09:27;4.72;;;1.20;;
15312;SDS011;7757;52.626;4.746;2023-04-26T05:12:12;4.57;;;1.30;;
15312;SDS011;7757;52.626;4.746;2023-04-26T05:14:59;4.35;;;1.50;;
15312;SDS011;7757;52.626;4.746;2023-04-26T05:17:44;6.90;;;1.27;;
15312;SDS011;7757;52.626;4.746;2023-04-26T05:20:29;4.78;;;1.30;;
15312;SDS011;7757;52.626;4.746;2023-04-26T05:23:15;7.45;;;1.50;;
15312;SDS011;7757;52.626;4.746;2023-04-26T05:26:00;6.32;;;1.40;;
15312;SDS011;7757;52.626;4.746;2023-04-26T05:28:48;5.93;;;1.40;;
15312;SDS011;7757;52.626;4.746;2023-04-26T05:31:35;9.30;;;1.30;;
15312;SDS011;7757;52.626;4.746;2023-04-26T05:34:21;5.55;;;1.40;;
15312;SDS011;7757;52.626;4.746;2023-04-26T05:37:07;5.65;;;2.30;;
15312;SDS011;7757;52.626;4.746;2023-04-26T05:39:52;6.28;;;1.45;;
15312;SDS011;7757;52.626;4.746;2023-04-26T05:42:37;3.92;;;1.20;;
15312;SDS011;7757;52.626;4.746;2023-04-26T05:45:23;3.70;;;1.17;;
15312;SDS011;7757;52.626;4.746;2023-04-26T05:48:10;5.40;;;1.35;;
15312;SDS011;7757;52.626;4.746;2023-04-26T05:50:55;12.57;;;2.30;;
15312;SDS011;7757;52.626;4.746;2023-04-26T05:53:41;10.80;;;2.30;;
15312;SDS011;7757;52.626;4.746;2023-04-26T05:56:28;16.88;;;3.03;;
15312;SDS011;7757;52.626;4.746;2023-04-26T05:59:13;19.95;;;2.55;;
15312;SDS011;7757;52.626;4.746;2023-04-26T06:01:59;15.13;;;2.88;;
15312;SDS011;7757;52.626;4.746;2023-04-26T06:04:46;16.30;;;2.70;;
15312;SDS011;7757;52.626;4.746;2023-04-26T06:07:31;19.52;;;2.72;;
15312;SDS011;7757;52.626;4.746;2023-04-26T06:10:17;17.45;;;3.08;;
15312;SDS011;7757;52.626;4.746;2023-04-26T06:13:02;13.13;;;2.42;;
15312;SDS011;7757;52.626;4.746;2023-04-26T06:15:47;16.88;;;2.70;;
15312;SDS011;7757;52.626;4.746;2023-04-26T06:18:33;21.50;;;3.28;;
15312;SDS011;7757;52.626;4.746;2023-04-26T06:21:20;16.70;;;2.40;;
15312;SDS011;7757;52.626;4.746;2023-04-26T06:24:06;18.23;;;3.00;;
15312;SDS011;7757;52.626;4.746;2023-04-26T06:26:51;17.83;;;2.97;;
15312;SDS011;7757;52.626;4.746;2023-04-26T06:29:37;18.30;;;3.33;;
15312;SDS011;7757;52.626;4.746;2023-04-26T06:32:22;15.82;;;2.65;;
15312;SDS011;7757;52.626;4.746;2023-04-26T06:35:08;16.90;;;3.20;;
15312;SDS011;7757;52.626;4.746;2023-04-26T06:37:55;13.93;;;2.50;;
15312;SDS011;7757;52.626;4.746;2023-04-26T06:40:41;15.73;;;3.03;;
15312;SDS011;7757;52.626;4.746;2023-04-26T06:43:26;12.88;;;2.60;;
15312;SDS011;7757;52.626;4.746;2023-04-26T06:46:12;13.15;;;2.58;;
15312;SDS011;7757;52.626;4.746;2023-04-26T06:48:57;14.27;;;2.78;;
15312;SDS011;7757;52.626;4.746;2023-04-26T06:51:42;13.52;;;2.60;;
15312;SDS011;7757;52.626;4.746;2023-04-26T06:54:29;20.38;;;2.90;;
15312;SDS011;7757;52.626;4.746;2023-04-26T06:57:15;16.40;;;2.60;;
15312;SDS011;7757;52.626;4.746;2023-04-26T07:00:00;18.60;;;2.83;;
15312;SDS011;7757;52.626;4.746;2023-04-26T07:02:47;11.18;;;2.50;;
15312;SDS011;7757;52.626;4.746;2023-04-26T07:05:33;17.50;;;2.50;;
15312;SDS011;7757;52.626;4.746;2023-04-26T07:08:18;13.18;;;2.63;;
15312;SDS011;7757;52.626;4.746;2023-04-26T07:11:09;11.20;;;2.50;;
15312;SDS011;7757;52.626;4.746;2023-04-26T07:13:55;12.18;;;2.50;;
15312;SDS011;7757;52.626;4.746;2023-04-26T07:16:40;10.88;;;2.20;;
15312;SDS011;7757;52.626;4.746;2023-04-26T07:19:26;12.50;;;2.10;;
15312;SDS011;7757;52.626;4.746;2023-04-26T07:22:11;10.75;;;2.05;;
15312;SDS011;7757;52.626;4.746;2023-04-26T07:24:57;9.20;;;2.15;;
15312;SDS011;7757;52.626;4.746;2023-04-26T07:27:44;11.43;;;2.20;;
15312;SDS011;7757;52.626;4.746;2023-04-26T07:30:29;11.70;;;1.90;;
15312;SDS011;7757;52.626;4.746;2023-04-26T07:33:15;13.45;;;2.58;;
15312;SDS011;7757;52.626;4.746;2023-04-26T07:36:01;9.48;;;2.17;;
15312;SDS011;7757;52.626;4.746;2023-04-26T07:38:46;7.88;;;1.95;;
15312;SDS011;7757;52.626;4.746;2023-04-26T07:41:32;9.40;;;2.10;;
15312;SDS011;7757;52.626;4.746;2023-04-26T07:44:19;9.18;;;2.00;;
15312;SDS011;7757;52.626;4.746;2023-04-26T07:47:04;9.90;;;1.98;;
15312;SDS011;7757;52.626;4.746;2023-04-26T07:49:55;14.05;;;2.10;;
15312;SDS011;7757;52.626;4.746;2023-04-26T07:52:41;9.85;;;1.88;;
15312;SDS011;7757;52.626;4.746;2023-04-26T07:55:27;10.73;;;1.88;;
15312;SDS011;7757;52.626;4.746;2023-04-26T07:58:12;10.63;;;1.92;;
15312;SDS011;7757;52.626;4.746;2023-04-26T08:00:59;7.47;;;1.88;;
15312;SDS011;7757;52.626;4.746;2023-04-26T08:03:44;8.38;;;1.88;;
15312;SDS011;7757;52.626;4.746;2023-04-26T08:06:31;8.23;;;1.90;;
15312;SDS011;7757;52.626;4.746;2023-04-26T08:09:16;6.20;;;1.65;;
15312;SDS011;7757;52.626;4.746;2023-04-26T08:12:05;10.52;;;1.92;;
15312;SDS011;7757;52.626;4.746;2023-04-26T08:14:51;6.40;;;1.63;;
15312;SDS011;7757;52.626;4.746;2023-04-26T08:17:38;11.35;;;1.95;;
15312;SDS011;7757;52.626;4.746;2023-04-26T08:20:24;10.90;;;1.95;;
15312;SDS011;7757;52.626;4.746;2023-04-26T08:23:09;7.30;;;1.60;;
15312;SDS011;7757;52.626;4.746;2023-04-26T08:25:55;9.32;;;1.83;;
15312;SDS011;7757;52.626;4.746;2023-04-26T08:28:40;9.27;;;1.80;;
15312;SDS011;7757;52.626;4.746;2023-04-26T08:31:26;7.35;;;1.92;;
15312;SDS011;7757;52.626;4.746;2023-04-26T08:34:13;8.10;;;1.80;;
15312;SDS011;7757;52.626;4.746;2023-04-26T08:36:58;6.32;;;1.45;;
15312;SDS011;7757;52.626;4.746;2023-04-26T08:39:43;9.32;;;1.77;;
15312;SDS011;7757;52.626;4.746;2023-04-26T08:42:31;7.50;;;1.55;;
15312;SDS011;7757;52.626;4.746;2023-04-26T08:45:18;8.68;;;1.75;;
15312;SDS011;7757;52.626;4.746;2023-04-26T08:48:04;13.02;;;1.75;;
15312;SDS011;7757;52.626;4.746;2023-04-26T08:50:58;7.35;;;1.60;;
15312;SDS011;7757;52.626;4.746;2023-04-26T08:53:45;6.88;;;1.65;;
15312;SDS011;7757;52.626;4.746;2023-04-26T08:56:35;7.78;;;1.67;;
15312;SDS011;7757;52.626;4.746;2023-04-26T08:59:22;7.45;;;1.63;;
15312;SDS011;7757;52.626;4.746;2023-04-26T09:02:09;6.75;;;1.65;;
15312;SDS011;7757;52.626;4.746;2023-04-26T09:04:56;8.30;;;1.80;;
15312;SDS011;7757;52.626;4.746;2023-04-26T09:07:44;8.60;;;1.70;;
15312;SDS011;7757;52.626;4.746;2023-04-26T09:10:30;6.38;;;1.58;;
15312;SDS011;7757;52.626;4.746;2023-04-26T09:13:15;8.25;;;1.80;;
15312;SDS011;7757;52.626;4.746;2023-04-26T09:16:01;7.75;;;2.00;;
15312;SDS011;7757;52.626;4.746;2023-04-26T09:18:46;6.07;;;1.60;;
15312;SDS011;7757;52.626;4.746;2023-04-26T09:21:35;7.90;;;1.80;;
15312;SDS011;7757;52.626;4.746;2023-04-26T09:24:28;7.38;;;1.60;;
15312;SDS011;7757;52.626;4.746;2023-04-26T09:27:31;9.07;;;1.60;;
15312;SDS011;7757;52.626;4.746;2023-04-26T09:30:19;9.30;;;1.75;;
15312;SDS011;7757;52.626;4.746;2023-04-26T09:36:09;5.35;;;1.25;;
15312;SDS011;7757;52.626;4.746;2023-04-26T09:38:56;5.90;;;1.48;;
15312;SDS011;7757;52.626;4.746;2023-04-26T09:41:43;5.43;;;1.30;;
15312;SDS011;7757;52.626;4.746;2023-04-26T09:44:29;6.35;;;1.70;;
15312;SDS011;7757;52.626;4.746;2023-04-26T09:47:14;7.35;;;1.60;;
15312;SDS011;7757;52.626;4.746;2023-04-26T09:50:00;7.10;;;1.60;;
15312;SDS011;7757;52.626;4.746;2023-04-26T09:52:45;6.05;;;1.50;;
15312;SDS011;7757;52.626;4.746;2023-04-26T09:55:31;7.72;;;1.80;;
15312;SDS011;7757;52.626;4.746;2023-04-26T09:58:17;7.25;;;1.63;;
15312;SDS011;7757;52.626;4.746;2023-04-26T10:01:03;7.10;;;1.48;;
15312;SDS011;7757;52.626;4.746;2023-04-26T10:03:50;7.32;;;1.60;;
15312;SDS011;7757;52.626;4.746;2023-04-26T10:06:36;7.07;;;1.73;;
15312;SDS011;7757;52.626;4.746;2023-04-26T10:09:21;7.63;;;1.63;;
15312;SDS011;7757;52.626;4.746;2023-04-26T10:12:07;4.35;;;1.38;;
15312;SDS011;7757;52.626;4.746;2023-04-26T10:14:55;6.45;;;1.55;;
15312;SDS011;7757;52.626;4.746;2023-04-26T10:17:40;5.28;;;1.50;;
15312;SDS011;7757;52.626;4.746;2023-04-26T10:20:27;4.93;;;1.40;;
15312;SDS011;7757;52.626;4.746;2023-04-26T10:23:16;5.78;;;1.55;;
15312;SDS011;7757;52.626;4.746;2023-04-26T10:26:04;6.65;;;1.45;;
15312;SDS011;7757;52.626;4.746;2023-04-26T10:28:53;6.50;;;1.58;;
15312;SDS011;7757;52.626;4.746;2023-04-26T10:35:07;11.77;;;2.17;;
15312;SDS011;7757;52.626;4.746;2023-04-26T10:38:09;14.57;;;2.67;;
15312;SDS011;7757;52.626;4.746;2023-04-26T10:40:55;26.85;;;2.80;;
15312;SDS011;7757;52.626;4.746;2023-04-26T10:47:25;13.05;;;2.30;;
15312;SDS011;7757;52.626;4.746;2023-04-26T10:50:11;13.68;;;2.47;;
15312;SDS011;7757;52.626;4.746;2023-04-26T10:53:06;8.82;;;2.10;;
15312;SDS011;7757;52.626;4.746;2023-04-26T10:55:52;14.20;;;2.30;;
15312;SDS011;7757;52.626;4.746;2023-04-26T10:58:39;12.90;;;2.50;;
15312;SDS011;7757;52.626;4.746;2023-04-26T11:01:25;14.75;;;2.95;;
15312;SDS011;7757;52.626;4.746;2023-04-26T11:04:12;11.45;;;2.30;;
15312;SDS011;7757;52.626;4.746;2023-04-26T11:06:57;10.27;;;1.88;;
15312;SDS011;7757;52.626;4.746;2023-04-26T11:09:48;9.52;;;2.00;;
15312;SDS011;7757;52.626;4.746;2023-04-26T11:12:33;9.00;;;2.00;;
15312;SDS011;7757;52.626;4.746;2023-04-26T11:15:19;12.25;;;2.50;;
15312;SDS011;7757;52.626;4.746;2023-04-26T11:18:05;9.48;;;2.28;;
15312;SDS011;7757;52.626;4.746;2023-04-26T11:20:52;10.88;;;2.10;;
15312;SDS011;7757;52.626;4.746;2023-04-26T11:23:37;13.63;;;2.08;;
15312;SDS011;7757;52.626;4.746;2023-04-26T11:26:31;10.77;;;1.95;;
15312;SDS011;7757;52.626;4.746;2023-04-26T11:29:17;9.23;;;2.13;;
15312;SDS011;7757;52.626;4.746;2023-04-26T11:32:03;10.65;;;2.28;;
15312;SDS011;7757;52.626;4.746;2023-04-26T11:34:49;10.68;;;2.25;;
15312;SDS011;7757;52.626;4.746;2023-04-26T11:37:36;10.15;;;2.35;;
15312;SDS011;7757;52.626;4.746;2023-04-26T11:40:22;10.75;;;2.15;;
15312;SDS011;7757;52.626;4.746;2023-04-26T11:43:08;12.13;;;2.30;;
15312;SDS011;7757;52.626;4.746;2023-04-26T11:45:57;12.77;;;2.17;;
15312;SDS011;7757;52.626;4.746;2023-04-26T11:48:43;10.98;;;2.28;;
15312;SDS011;7757;52.626;4.746;2023-04-26T11:51:28;10.27;;;2.13;;
15312;SDS011;7757;52.626;4.746;2023-04-26T11:54:27;8.48;;;2.05;;
15312;SDS011;7757;52.626;4.746;2023-04-26T11:57:13;11.48;;;2.10;;
15312;SDS011;7757;52.626;4.746;2023-04-26T12:00:09;11.60;;;2.00;;
15312;SDS011;7757;52.626;4.746;2023-04-26T12:03:03;9.25;;;1.85;;
15312;SDS011;7757;52.626;4.746;2023-04-26T12:05:52;15.35;;;2.40;;
15312;SDS011;7757;52.626;4.746;2023-04-26T12:08:38;10.77;;;2.20;;
15312;SDS011;7757;52.626;4.746;2023-04-26T12:11:25;10.82;;;2.08;;
15312;SDS011;7757;52.626;4.746;2023-04-26T12:14:11;11.32;;;2.05;;
15312;SDS011;7757;52.626;4.746;2023-04-26T12:17:00;9.57;;;2.33;;
15312;SDS011;7757;52.626;4.746;2023-04-26T12:19:48;11.55;;;2.05;;
15312;SDS011;7757;52.626;4.746;2023-04-26T12:22:34;8.95;;;1.75;;
15312;SDS011;7757;52.626;4.746;2023-04-26T12:25:20;11.60;;;1.80;;
15312;SDS011;7757;52.626;4.746;2023-04-26T12:28:08;9.98;;;1.80;;
15312;SDS011;7757;52.626;4.746;2023-04-26T12:30:56;9.23;;;1.63;;
15312;SDS011;7757;52.626;4.746;2023-04-26T12:33:43;6.88;;;1.60;;
15312;SDS011;7757;52.626;4.746;2023-04-26T12:36:29;8.70;;;2.00;;
15312;SDS011;7757;52.626;4.746;2023-04-26T12:39:14;14.15;;;2.17;;
15312;SDS011;7757;52.626;4.746;2023-04-26T12:42:00;7.72;;;1.70;;
15312;SDS011;7757;52.626;4.746;2023-04-26T12:44:47;7.45;;;1.80;;
15312;SDS011;7757;52.626;4.746;2023-04-26T12:47:32;10.35;;;1.92;;
15312;SDS011;7757;52.626;4.746;2023-04-26T12:50:18;10.70;;;1.95;;
15312;SDS011;7757;52.626;4.746;2023-04-26T12:53:04;11.15;;;1.90;;
15312;SDS011;7757;52.626;4.746;2023-04-26T12:55:49;7.32;;;1.60;;
15312;SDS011;7757;52.626;4.746;2023-04-26T12:58:35;7.32;;;1.75;;
15312;SDS011;7757;52.626;4.746;2023-04-26T13:01:23;7.10;;;1.70;;
15312;SDS011;7757;52.626;4.746;2023-04-26T13:04:10;8.43;;;1.75;;
15312;SDS011;7757;52.626;4.746;2023-04-26T13:06:56;8.55;;;1.80;;
15312;SDS011;7757;52.626;4.746;2023-04-26T13:09:41;5.90;;;1.63;;
15312;SDS011;7757;52.626;4.746;2023-04-26T13:12:27;9.63;;;1.92;;
15312;SDS011;7757;52.626;4.746;2023-04-26T13:15:13;6.78;;;1.80;;
15312;SDS011;7757;52.626;4.746;2023-04-26T13:18:00;13.38;;;2.17;;
15312;SDS011;7757;52.626;4.746;2023-04-26T13:20:45;8.75;;;1.75;;
15312;SDS011;7757;52.626;4.746;2023-04-26T13:23:30;9.20;;;1.75;;
15312;SDS011;7757;52.626;4.746;2023-04-26T13:26:16;8.70;;;1.85;;
15312;SDS011;7757;52.626;4.746;2023-04-26T13:29:01;7.47;;;1.80;;
15312;SDS011;7757;52.626;4.746;2023-04-26T13:31:48;10.30;;;2.00;;
15312;SDS011;7757;52.626;4.746;2023-04-26T13:34:34;9.50;;;2.03;;
15312;SDS011;7757;52.626;4.746;2023-04-26T13:37:21;13.48;;;1.90;;
15312;SDS011;7757;52.626;4.746;2023-04-26T13:40:07;11.45;;;1.80;;
15312;SDS011;7757;52.626;4.746;2023-04-26T13:42:55;10.13;;;2.05;;
15312;SDS011;7757;52.626;4.746;2023-04-26T13:45:41;9.25;;;1.85;;
15312;SDS011;7757;52.626;4.746;2023-04-26T13:48:26;9.95;;;2.08;;
15312;SDS011;7757;52.626;4.746;2023-04-26T13:51:13;10.15;;;1.77;;
15312;SDS011;7757;52.626;4.746;2023-04-26T13:53:58;12.40;;;2.00;;
15312;SDS011;7757;52.626;4.746;2023-04-26T13:56:44;7.65;;;1.50;;
15312;SDS011;7757;52.626;4.746;2023-04-26T13:59:29;8.88;;;1.83;;
15312;SDS011;7757;52.626;4.746;2023-04-26T14:02:15;13.32;;;1.80;;
15312;SDS011;7757;52.626;4.746;2023-04-26T14:05:00;8.52;;;2.00;;
15312;SDS011;7757;52.626;4.746;2023-04-26T14:07:47;9.30;;;1.80;;
15312;SDS011;7757;52.626;4.746;2023-04-26T14:10:32;15.70;;;2.08;;
15312;SDS011;7757;52.626;4.746;2023-04-26T14:13:18;8.55;;;1.67;;
15312;SDS011;7757;52.626;4.746;2023-04-26T14:16:03;11.40;;;2.17;;
15312;SDS011;7757;52.626;4.746;2023-04-26T14:18:49;8.40;;;1.70;;
15312;SDS011;7757;52.626;4.746;2023-04-26T14:21:35;11.10;;;1.83;;
15312;SDS011;7757;52.626;4.746;2023-04-26T14:24:22;6.90;;;1.80;;
15312;SDS011;7757;52.626;4.746;2023-04-26T14:27:07;7.93;;;1.90;;
15312;SDS011;7757;52.626;4.746;2023-04-26T14:29:53;7.25;;;1.67;;
15312;SDS011;7757;52.626;4.746;2023-04-26T14:32:39;8.82;;;1.85;;
15312;SDS011;7757;52.626;4.746;2023-04-26T14:35:24;11.40;;;1.83;;
15312;SDS011;7757;52.626;4.746;2023-04-26T14:38:10;9.15;;;1.95;;
15312;SDS011;7757;52.626;4.746;2023-04-26T14:40:56;7.90;;;1.67;;
15312;SDS011;7757;52.626;4.746;2023-04-26T14:43:42;7.45;;;1.90;;
15312;SDS011;7757;52.626;4.746;2023-04-26T14:46:28;9.13;;;1.75;;
15312;SDS011;7757;52.626;4.746;2023-04-26T14:49:14;7.00;;;1.60;;
15312;SDS011;7757;52.626;4.746;2023-04-26T14:51:59;7.65;;;1.77;;
15312;SDS011;7757;52.626;4.746;2023-04-26T14:54:45;9.32;;;1.70;;
15312;SDS011;7757;52.626;4.746;2023-04-26T14:57:32;8.73;;;1.88;;
15312;SDS011;7757;52.626;4.746;2023-04-26T15:00:17;6.38;;;1.77;;
15312;SDS011;7757;52.626;4.746;2023-04-26T15:03:03;6.80;;;1.48;;
15312;SDS011;7757;52.626;4.746;2023-04-26T15:05:49;5.68;;;1.55;;
15312;SDS011;7757;52.626;4.746;2023-04-26T15:08:34;6.75;;;1.50;;
15312;SDS011;7757;52.626;4.746;2023-04-26T15:11:20;7.47;;;1.80;;
15312;SDS011;7757;52.626;4.746;2023-04-26T15:14:07;7.72;;;1.60;;
15312;SDS011;7757;52.626;4.746;2023-04-26T15:16:53;9.88;;;1.98;;
15312;SDS011;7757;52.626;4.746;2023-04-26T15:19:39;6.85;;;1.77;;
15312;SDS011;7757;52.626;4.746;2023-04-26T15:22:24;8.40;;;1.83;;
15312;SDS011;7757;52.626;4.746;2023-04-26T15:25:10;7.00;;;1.80;;
15312;SDS011;7757;52.626;4.746;2023-04-26T15:27:55;8.88;;;1.70;;
15312;SDS011;7757;52.626;4.746;2023-04-26T15:30:42;5.78;;;1.70;;
15312;SDS011;7757;52.626;4.746;2023-04-26T15:33:27;8.73;;;1.83;;
15312;SDS011;7757;52.626;4.746;2023-04-26T15:36:13;9.10;;;1.90;;
15312;SDS011;7757;52.626;4.746;2023-04-26T15:38:59;10.82;;;1.90;;
15312;SDS011;7757;52.626;4.746;2023-04-26T15:41:44;8.00;;;1.80;;
15312;SDS011;7757;52.626;4.746;2023-04-26T15:44:30;7.95;;;1.98;;
15312;SDS011;7757;52.626;4.746;2023-04-26T15:47:17;6.75;;;1.70;;
15312;SDS011;7757;52.626;4.746;2023-04-26T15:50:02;5.40;;;1.70;;
15312;SDS011;7757;52.626;4.746;2023-04-26T15:52:48;8.95;;;1.70;;
15312;SDS011;7757;52.626;4.746;2023-04-26T15:55:34;7.90;;;1.80;;
15312;SDS011;7757;52.626;4.746;2023-04-26T15:58:19;6.78;;;1.60;;
15312;SDS011;7757;52.626;4.746;2023-04-26T16:01:07;8.13;;;1.77;;
15312;SDS011;7757;52.626;4.746;2023-04-26T16:03:53;6.03;;;1.75;;
15312;SDS011;7757;52.626;4.746;2023-04-26T16:06:39;5.70;;;1.52;;
15312;SDS011;7757;52.626;4.746;2023-04-26T16:09:24;7.25;;;1.65;;
15312;SDS011;7757;52.626;4.746;2023-04-26T16:12:11;6.00;;;1.80;;
15312;SDS011;7757;52.626;4.746;2023-04-26T16:14:56;12.20;;;1.95;;
15312;SDS011;7757;52.626;4.746;2023-04-26T16:17:42;7.57;;;1.88;;
15312;SDS011;7757;52.626;4.746;2023-04-26T16:20:29;9.32;;;1.70;;
15312;SDS011;7757;52.626;4.746;2023-04-26T16:23:15;6.63;;;1.70;;
15312;SDS011;7757;52.626;4.746;2023-04-26T16:26:01;6.60;;;1.63;;
15312;SDS011;7757;52.626;4.746;2023-04-26T16:28:48;6.05;;;1.63;;
15312;SDS011;7757;52.626;4.746;2023-04-26T16:31:33;7.60;;;1.50;;
15312;SDS011;7757;52.626;4.746;2023-04-26T16:34:19;8.82;;;1.70;;
15312;SDS011;7757;52.626;4.746;2023-04-26T16:37:06;4.63;;;1.40;;
15312;SDS011;7757;52.626;4.746;2023-04-26T16:39:52;7.68;;;2.00;;
15312;SDS011;7757;52.626;4.746;2023-04-26T16:42:40;7.53;;;1.60;;
15312;SDS011;7757;52.626;4.746;2023-04-26T16:45:27;8.40;;;1.90;;
15312;SDS011;7757;52.626;4.746;2023-04-26T16:48:16;5.68;;;1.70;;
15312;SDS011;7757;52.626;4.746;2023-04-26T16:51:02;5.18;;;1.50;;
15312;SDS011;7757;52.626;4.746;2023-04-26T16:53:50;6.10;;;1.65;;
15312;SDS011;7757;52.626;4.746;2023-04-26T16:56:49;7.03;;;1.73;;
15312;SDS011;7757;52.626;4.746;2023-04-26T16:59:35;6.47;;;1.85;;
15312;SDS011;7757;52.626;4.746;2023-04-26T17:02:20;8.10;;;1.88;;
15312;SDS011;7757;52.626;4.746;2023-04-26T17:05:09;6.07;;;1.70;;